createdAt,value
2018-05-25T07:29:46.220Z,51.3
2018-05-25T07:30:36.575Z,51.5
2018-05-25T07:31:26.903Z,51.7
2018-05-25T07:32:16.994Z,51.8
2018-05-25T07:33:57.110Z,52.1
2018-05-25T07:34:46.907Z,52.3
2018-05-25T07:36:27.299Z,52.5
2018-05-25T07:37:16.821Z,52.7
2018-05-25T07:38:07.444Z,52.8
2018-05-25T07:38:57.226Z,52.9
2018-05-25T07:39:47.305Z,53.1
2018-05-25T07:40:37.621Z,53.2
2018-05-25T07:41:27.434Z,53.3
2018-05-25T07:42:17.764Z,53.5
2018-05-25T07:43:07.536Z,53.6
2018-05-25T07:43:57.625Z,53.8
2018-05-25T07:44:47.960Z,53.9
2018-05-25T07:45:37.473Z,53.9
2018-05-25T07:46:28.103Z,54
2018-05-25T07:47:18.203Z,54
2018-05-25T07:48:07.666Z,54.1
2018-05-25T07:48:58.281Z,54.1
2018-05-25T07:49:48.331Z,54.2
2018-05-25T07:50:38.130Z,54.3
2018-05-25T07:51:28.187Z,54.4
2018-05-25T07:52:18.533Z,54.5
2018-05-25T07:53:08.599Z,54.6
2018-05-25T07:53:58.648Z,54.7
2018-05-25T07:54:48.729Z,54.7
2018-05-25T07:55:38.212Z,54.6
2018-05-25T07:56:28.882Z,54.7
2018-05-25T07:57:18.939Z,54.7
2018-05-25T07:58:09.013Z,54.8
2018-05-25T07:58:59.052Z,54.9
2018-05-25T07:59:49.159Z,54.9
2018-05-25T08:00:39.211Z,55
2018-05-25T08:01:29.234Z,55.1
2018-05-25T08:02:18.449Z,55.3
2018-05-25T08:03:09.428Z,55.5
2018-05-25T08:03:59.424Z,55.6
2018-05-25T08:04:49.496Z,55.8
2018-05-25T08:05:39.572Z,55.8
2018-05-25T08:06:29.949Z,55.9
2018-05-25T08:07:19.688Z,56.1
2018-05-25T08:08:09.483Z,56.3
2018-05-25T08:08:59.839Z,56.4
2018-05-25T08:09:49.884Z,56.6
2018-05-25T08:10:39.413Z,56.8
2018-05-25T08:11:30.023Z,56.9
2018-05-25T08:12:19.809Z,57.1
2018-05-25T08:13:10.158Z,57.3
2018-05-25T08:13:59.947Z,57.4
2018-05-25T08:14:50.290Z,57.6
2018-05-25T08:16:29.838Z,57.8
2018-05-25T08:17:19.909Z,57.9
2018-05-25T08:18:10.269Z,58.1
2018-05-25T08:19:00.316Z,58.2
2018-05-25T08:19:50.391Z,58.3
2018-05-25T08:20:40.728Z,58.5
2018-05-25T08:21:30.793Z,58.6
2018-05-25T08:22:20.386Z,58.8
2018-05-25T08:23:10.376Z,58.9
2018-05-25T08:24:01.008Z,59.1
2018-05-25T08:24:51.053Z,59.2
2018-05-25T08:25:40.853Z,59.3
2018-05-25T08:26:31.200Z,59.3
2018-05-25T08:27:21.247Z,59.3
2018-05-25T08:28:11.317Z,59.2
2018-05-25T08:29:01.383Z,59.1
2018-05-25T08:29:50.975Z,59.1
2018-05-25T08:30:41.227Z,59.1
2018-05-25T08:31:31.024Z,59.1
2018-05-25T08:32:21.657Z,59.1
2018-05-25T08:33:11.144Z,59.1
2018-05-25T08:34:01.813Z,59.1
2018-05-25T08:34:51.839Z,59
2018-05-25T08:35:41.902Z,59.1
2018-05-25T08:36:31.974Z,59.1
2018-05-25T08:37:22.025Z,59.2
2018-05-25T08:38:12.107Z,59.3
2018-05-25T08:39:02.193Z,59.4
2018-05-25T08:39:52.223Z,59.6
2018-05-25T08:40:42.007Z,59.7
2018-05-25T08:41:31.792Z,59.8
2018-05-25T08:42:22.415Z,59.9
2018-05-25T08:43:12.603Z,59.9
2018-05-25T08:44:02.532Z,60
2018-05-25T08:44:52.628Z,60
2018-05-25T08:45:42.384Z,59.9
2018-05-25T08:46:32.766Z,59.9
2018-05-25T08:47:22.805Z,59.8
2018-05-25T08:48:13.060Z,59.8
2018-05-25T08:49:03.071Z,59.8
2018-05-25T08:49:52.508Z,59.9
2018-05-25T08:50:43.091Z,60
2018-05-25T08:51:33.141Z,60.2
2018-05-25T08:52:23.193Z,60.4
2018-05-25T08:53:12.706Z,60.6
2018-05-25T08:54:03.471Z,60.7
2018-05-25T08:54:53.481Z,60.9
2018-05-25T08:55:43.518Z,61.1
2018-05-25T08:56:33.520Z,61.2
2018-05-25T08:57:23.307Z,61.3
2018-05-25T08:58:13.649Z,61.5
2018-05-25T08:59:03.745Z,61.6
2018-05-25T08:59:53.806Z,61.8
2018-05-25T09:00:43.332Z,61.8
2018-05-25T09:01:33.918Z,61.9
2018-05-25T09:02:23.981Z,61.9
2018-05-25T09:03:13.758Z,61.8
2018-05-25T09:04:04.120Z,61.8
2018-05-25T09:04:54.168Z,61.6
2018-05-25T09:05:43.971Z,61.4
2018-05-25T09:06:34.324Z,61.4
2018-05-25T09:07:24.362Z,61.4
2018-05-25T09:08:14.162Z,61.4
2018-05-25T09:09:03.939Z,61.4
2018-05-25T09:09:54.289Z,61.5
2018-05-25T09:10:44.339Z,61.5
2018-05-25T09:11:34.699Z,61.4
2018-05-25T09:12:25.090Z,61.4
2018-05-25T09:13:14.864Z,61.4
2018-05-25T09:14:04.618Z,61.4
2018-05-25T09:14:54.739Z,61.5
2018-05-25T09:15:44.776Z,61.6
2018-05-25T09:16:34.572Z,61.7
2018-05-25T09:17:24.914Z,61.6
2018-05-25T09:18:15.224Z,61.6
2018-05-25T09:19:04.993Z,61.6
2018-05-25T09:19:55.359Z,61.7
2018-05-25T09:20:45.124Z,61.8
2018-05-25T09:21:35.603Z,61.9
2018-05-25T09:22:25.552Z,61.9
2018-05-25T09:23:15.591Z,61.9
2018-05-25T09:24:05.667Z,61.9
2018-05-25T09:24:55.203Z,61.9
2018-05-25T09:25:45.501Z,61.9
2018-05-25T09:26:35.853Z,61.9
2018-05-25T09:27:25.371Z,62
2018-05-25T09:28:16.014Z,62.1
2018-05-25T09:29:05.486Z,62.2
2018-05-25T09:29:56.122Z,62.3
2018-05-25T09:30:46.238Z,62.4
2018-05-25T09:31:35.686Z,62.6
2018-05-25T09:32:26.299Z,62.7
2018-05-25T09:33:16.392Z,62.8
2018-05-25T09:34:06.449Z,62.9
2018-05-25T09:34:56.492Z,63.1
2018-05-25T09:35:46.580Z,63.2
2018-05-25T09:36:36.349Z,63.3
2018-05-25T09:37:26.736Z,63.5
2018-05-25T09:38:16.488Z,63.6
2018-05-25T09:39:06.874Z,63.8
2018-05-25T09:39:56.617Z,63.9
2018-05-25T09:40:46.967Z,63.7
2018-05-25T09:41:36.786Z,63.6
2018-05-25T09:42:27.111Z,63.8
2018-05-25T09:43:17.168Z,64
2018-05-25T09:44:06.931Z,64.2
2018-05-25T09:44:57.292Z,64.4
2018-05-25T09:45:46.782Z,64.7
2018-05-25T09:46:37.457Z,64.8
2018-05-25T09:47:26.912Z,64.6
2018-05-25T09:48:17.261Z,64.4
2018-05-25T09:49:07.631Z,63.7
2018-05-25T09:49:57.662Z,62.5
2018-05-25T09:50:47.742Z,61.4
2018-05-25T09:51:37.811Z,60.3
2018-05-25T09:52:27.903Z,59.6
2018-05-25T09:53:17.946Z,58.9
2018-05-25T09:54:08.071Z,58.4
2018-05-25T09:54:58.084Z,58.1
2018-05-25T09:55:48.125Z,58.3
2018-05-25T09:56:37.929Z,58.8
2018-05-25T09:57:28.252Z,59.3
2018-05-25T09:58:18.322Z,59.8
2018-05-25T09:59:08.102Z,59.9
2018-05-25T09:59:58.450Z,60.1
2018-05-25T10:00:48.235Z,60.3
2018-05-25T10:01:38.577Z,60.4
2018-05-25T10:02:28.634Z,60.6
2018-05-25T10:03:18.440Z,60.9
2018-05-25T10:04:08.800Z,61.3
2018-05-25T10:04:58.564Z,61.6
2018-05-25T10:05:48.937Z,61.8
2018-05-25T10:06:38.726Z,61.8
2018-05-25T10:07:28.460Z,61.9
2018-05-25T10:08:19.108Z,62
2018-05-25T10:09:09.178Z,61.9
2018-05-25T10:09:59.237Z,61.6
2018-05-25T10:10:49.020Z,61.1
2018-05-25T10:11:39.361Z,60.8
2018-05-25T10:12:29.420Z,61.1
2018-05-25T10:13:19.208Z,61.6
2018-05-25T10:14:09.568Z,61.7
2018-05-25T10:14:59.613Z,61.8
2018-05-25T10:15:49.673Z,61.9
2018-05-25T10:16:39.755Z,61.4
2018-05-25T10:17:29.529Z,60.6
2018-05-25T10:18:19.609Z,60.4
2018-05-25T10:19:09.373Z,60.9
2018-05-25T10:19:59.726Z,61.5
2018-05-25T10:20:50.070Z,62.2
2018-05-25T10:21:40.147Z,62.8
2018-05-25T10:22:30.197Z,63.1
2018-05-25T10:23:20.260Z,63.1
2018-05-25T10:24:10.333Z,63.1
2018-05-25T10:25:00.400Z,63.2
2018-05-25T10:25:50.194Z,63.1
2018-05-25T10:26:40.241Z,62.5
2018-05-25T10:27:30.591Z,61.6
2018-05-25T10:28:20.386Z,60.7
2018-05-25T10:29:10.696Z,59.9
2018-05-25T10:30:00.500Z,60.1
2018-05-25T10:30:50.830Z,60.7
2018-05-25T10:31:40.349Z,61.4
2018-05-25T10:32:30.681Z,61.9
2018-05-25T10:33:21.033Z,62.3
2018-05-25T10:34:11.130Z,62.3
2018-05-25T10:35:01.348Z,62.3
2018-05-25T10:35:51.223Z,62.3
2018-05-25T10:36:41.287Z,62.5
2018-05-25T10:37:31.355Z,62.8
2018-05-25T10:38:21.449Z,63.2
2018-05-25T10:39:11.205Z,63.5
2018-05-25T10:40:01.573Z,63.3
2018-05-25T10:40:51.354Z,62.6
2018-05-25T10:41:41.694Z,62.1
2018-05-25T10:42:31.759Z,61.6
2018-05-25T10:43:21.534Z,61.3
2018-05-25T10:44:11.592Z,60.9
2018-05-25T10:45:01.960Z,60.9
2018-05-25T10:45:52.016Z,61.4
2018-05-25T10:46:42.084Z,61.7
2018-05-25T10:47:32.126Z,61.9
2018-05-25T10:48:21.936Z,62.1
2018-05-25T10:49:11.706Z,62.2
2018-05-25T10:50:02.071Z,62.2
2018-05-25T10:50:52.096Z,62.3
2018-05-25T10:51:42.168Z,62.4
2018-05-25T10:52:32.527Z,62.6
2018-05-25T10:53:22.288Z,62.8
2018-05-25T10:54:12.678Z,63
2018-05-25T10:55:02.749Z,62.9
2018-05-25T10:55:52.613Z,62.9
2018-05-25T10:56:42.569Z,63.1
2018-05-25T10:57:32.610Z,63.3
2018-05-25T10:58:22.697Z,63.6
2018-05-25T10:59:12.772Z,63.8
2018-05-25T11:00:02.845Z,64.1
2018-05-25T11:00:53.219Z,64.2
2018-05-25T11:01:42.947Z,64.4
2018-05-25T11:02:33.011Z,64.5
2018-05-25T11:03:23.074Z,64.6
2018-05-25T11:04:12.584Z,64.8
2018-05-25T11:05:03.502Z,64.9
2018-05-25T11:05:53.280Z,65.1
2018-05-25T11:06:43.638Z,65.2
2018-05-25T11:07:33.701Z,65.3
2018-05-25T11:08:23.459Z,65.4
2018-05-25T11:09:13.258Z,65.6
2018-05-25T11:10:03.916Z,65.6
2018-05-25T11:10:53.655Z,65.8
2018-05-25T11:11:43.736Z,65.9
2018-05-25T11:12:34.065Z,66
2018-05-25T11:13:24.146Z,66.1
2018-05-25T11:14:14.213Z,66.2
2018-05-25T11:15:04.278Z,66.3
2018-05-25T11:15:54.332Z,66.4
2018-05-25T11:16:44.396Z,66.6
2018-05-25T11:17:34.203Z,66.7
2018-05-25T11:18:24.525Z,66.7
2018-05-25T11:19:14.580Z,66.8
2018-05-25T11:20:04.381Z,66.7
2018-05-25T11:20:54.884Z,66.7
2018-05-25T11:21:44.805Z,66.7
2018-05-25T11:22:34.870Z,66.7
2018-05-25T11:23:24.928Z,66.7
2018-05-25T11:24:14.440Z,66.7
2018-05-25T11:25:04.779Z,66.6
2018-05-25T11:25:55.118Z,66.6
2018-05-25T11:26:44.939Z,66.5
2018-05-25T11:27:35.256Z,66.5
2018-05-25T11:28:25.301Z,66.5
2018-05-25T11:29:15.363Z,66.5
2018-05-25T11:30:05.448Z,66.5
2018-05-25T11:30:55.218Z,66.6
2018-05-25T11:31:45.584Z,66.7
2018-05-25T11:32:35.629Z,66.8
2018-05-25T11:33:25.412Z,66.8
2018-05-25T11:34:15.500Z,66.8
2018-05-25T11:35:05.820Z,66.8
2018-05-25T11:35:55.617Z,66.8
2018-05-25T11:36:45.677Z,66.8
2018-05-25T11:37:35.736Z,66.6
2018-05-25T11:38:26.087Z,66.4
2018-05-25T11:39:15.595Z,66.5
2018-05-25T11:40:06.221Z,66.5
2018-05-25T11:40:55.720Z,66.6
2018-05-25T11:41:46.343Z,66.6
2018-05-25T11:42:36.143Z,66.5
2018-05-25T11:43:26.200Z,66.4
2018-05-25T11:44:16.569Z,66.3
2018-05-25T11:45:06.605Z,66.1
2018-05-25T11:45:56.678Z,66.1
2018-05-25T11:46:46.727Z,66
2018-05-25T11:47:36.514Z,66
2018-05-25T11:48:26.874Z,66
2018-05-25T11:49:16.947Z,66
2018-05-25T11:50:07.007Z,66
2018-05-25T11:50:57.080Z,66
2018-05-25T11:51:46.852Z,66.1
2018-05-25T11:52:37.182Z,66.1
2018-05-25T11:53:26.675Z,66.1
2018-05-25T11:54:17.031Z,66
2018-05-25T11:55:07.378Z,65.9
2018-05-25T11:55:57.439Z,65.9
2018-05-25T11:56:47.519Z,65.9
2018-05-25T11:57:37.599Z,65.8
2018-05-25T11:58:27.086Z,65.9
2018-05-25T11:59:17.720Z,65.7
2018-05-25T12:00:07.779Z,65
2018-05-25T12:00:57.835Z,64.4
2018-05-25T12:01:47.729Z,64.2
2018-05-25T12:02:37.424Z,63.8
2018-05-25T12:03:27.759Z,63.8
2018-05-25T12:04:18.078Z,64.1
2018-05-25T12:05:07.604Z,64.3
2018-05-25T12:05:58.259Z,64.4
2018-05-25T12:06:48.002Z,64.4
2018-05-25T12:07:38.346Z,63.9
2018-05-25T12:08:28.139Z,63.1
2018-05-25T12:09:18.493Z,62.3
2018-05-25T12:10:08.581Z,61.6
2018-05-25T12:10:58.632Z,61.3
2018-05-25T12:11:48.677Z,61.5
2018-05-25T12:12:38.472Z,62
2018-05-25T12:13:28.527Z,62.4
2018-05-25T12:14:18.870Z,62.6
2018-05-25T12:15:08.681Z,62.5
2018-05-25T12:15:58.991Z,62.3
2018-05-25T12:16:49.066Z,62.1
2018-05-25T12:17:38.854Z,62.1
2018-05-25T12:18:29.218Z,61.9
2018-05-25T12:19:19.263Z,61.6
2018-05-25T12:20:09.324Z,61.3
2018-05-25T12:20:59.121Z,61.1
2018-05-25T12:21:49.483Z,60.4
2018-05-25T12:22:39.245Z,59.6
2018-05-25T12:23:29.593Z,58.8
2018-05-25T12:24:19.659Z,58.3
2018-05-25T12:25:09.484Z,58.3
2018-05-25T12:54:21.440Z,85
2018-05-25T12:55:11.776Z,63.3
2018-05-25T12:56:02.127Z,63.4
2018-05-25T12:56:52.186Z,62.3
2018-05-25T12:57:42.231Z,59.9
2018-05-25T12:58:32.296Z,57.4
2018-05-25T12:59:22.375Z,55.9
2018-05-25T13:00:12.426Z,55.1
2018-05-25T13:01:02.208Z,54.8
2018-05-25T13:01:52.552Z,54.8
2018-05-25T13:02:42.624Z,54.8
2018-05-25T13:03:32.703Z,54.9
2018-05-25T13:04:22.746Z,55.2
2018-05-25T13:05:12.838Z,55.6
2018-05-25T13:06:02.608Z,56
2018-05-25T13:06:52.946Z,56.5
2018-05-25T13:07:43.006Z,56.9
2018-05-25T13:08:32.805Z,57.4
2018-05-25T13:10:13.198Z,58
